CheckWX is a tool to help pilots better visualize weather data.  It is not intended as a substitute for an official pre-flight weather briefing.

00:26:14 UTC

KCUL METAR
Carmi Municipal Airport
Carmi, Illinois, USA
Current

31 mins ago

KCUL 182355Z AUTO 10007KT 10SM CLR 11/05 A2993 RMK AO2
Observed
Oct-18 @ 23:55 UTC
Wind
  • 100° at 7 KTS
Visibility
10 SM
Flight Rules
VFR
Cloud Levels
  • Clear skies
Temperature
11°C / 52°F
Dewpoint
C / 41°F
Humidity
67%
Altimeter
29.93" Hg
Pressure
1013.52 hPa
Previous

51 mins ago

KCUL 182335Z AUTO 10007KT 10SM CLR 12/05 A2993 RMK AO2
Observed
Oct-18 @ 23:35 UTC
Wind
  • 100° at 7 KTS
Visibility
10 SM
Flight Rules
VFR
Cloud Levels
  • Clear skies
Temperature
12°C / 54°F
Dewpoint
C / 41°F
Humidity
63%
Altimeter
29.93" Hg
Pressure
1013.52 hPa
Previous

1 hour ago

KCUL 182315Z AUTO 10006KT 10SM CLR 13/05 A2993 RMK AO2
Observed
Oct-18 @ 23:15 UTC
Wind
  • 100° at 6 KTS
Visibility
10 SM
Flight Rules
VFR
Cloud Levels
  • Clear skies
Temperature
13°C / 55°F
Dewpoint
C / 41°F
Humidity
59%
Altimeter
29.93" Hg
Pressure
1013.52 hPa